sensor_id;sensor_type;location;lat;lon;timestamp;pressure;altitude;pressure_sealevel;temperature;humidity
54948;BME280;41113;41.882;12.530;2023-03-21T00:01:18;101203.81;;;11.92;100.00
54948;BME280;41113;41.882;12.530;2023-03-21T00:03:43;101206.97;;;11.97;100.00
54948;BME280;41113;41.882;12.530;2023-03-21T00:06:12;101211.63;;;11.95;100.00
54948;BME280;41113;41.882;12.530;2023-03-21T00:08:38;101206.78;;;11.89;100.00
54948;BME280;41113;41.882;12.530;2023-03-21T00:11:06;101203.69;;;11.94;100.00
54948;BME280;41113;41.882;12.530;2023-03-21T00:13:33;101208.66;;;11.98;100.00
54948;BME280;41113;41.882;12.530;2023-03-21T00:16:07;101211.50;;;11.97;100.00
54948;BME280;41113;41.882;12.530;2023-03-21T00:18:34;101208.50;;;11.90;100.00
54948;BME280;41113;41.882;12.530;2023-03-21T00:21:06;101214.00;;;11.89;100.00
54948;BME280;41113;41.882;12.530;2023-03-21T00:23:33;101213.41;;;11.85;100.00
54948;BME280;41113;41.882;12.530;2023-03-21T00:25:59;101210.81;;;11.63;100.00
54948;BME280;41113;41.882;12.530;2023-03-21T00:28:25;101211.25;;;11.68;100.00
54948;BME280;41113;41.882;12.530;2023-03-21T00:30:56;101204.41;;;11.75;100.00
54948;BME280;41113;41.882;12.530;2023-03-21T00:33:22;101204.41;;;11.75;100.00
54948;BME280;41113;41.882;12.530;2023-03-21T00:35:49;101207.81;;;11.77;100.00
54948;BME280;41113;41.882;12.530;2023-03-21T00:38:16;101198.53;;;11.81;100.00
54948;BME280;41113;41.882;12.530;2023-03-21T00:40:42;101203.91;;;11.81;100.00
54948;BME280;41113;41.882;12.530;2023-03-21T00:43:08;101192.88;;;11.84;100.00
54948;BME280;41113;41.882;12.530;2023-03-21T00:45:33;101193.47;;;11.88;100.00
54948;BME280;41113;41.882;12.530;2023-03-21T00:47:59;101185.38;;;11.88;100.00
54948;BME280;41113;41.882;12.530;2023-03-21T00:50:24;101190.31;;;11.82;100.00
54948;BME280;41113;41.882;12.530;2023-03-21T00:52:50;101201.56;;;11.76;100.00
54948;BME280;41113;41.882;12.530;2023-03-21T00:55:16;101198.66;;;11.68;100.00
54948;BME280;41113;41.882;12.530;2023-03-21T00:57:42;101193.69;;;11.64;100.00
54948;BME280;41113;41.882;12.530;2023-03-21T01:00:11;101198.53;;;11.49;100.00
54948;BME280;41113;41.882;12.530;2023-03-21T01:02:37;101200.06;;;11.31;100.00
54948;BME280;41113;41.882;12.530;2023-03-21T01:05:09;101198.69;;;11.04;100.00
54948;BME280;41113;41.882;12.530;2023-03-21T01:07:35;101188.88;;;10.82;100.00
54948;BME280;41113;41.882;12.530;2023-03-21T01:10:00;101184.34;;;10.83;100.00
54948;BME280;41113;41.882;12.530;2023-03-21T01:12:26;101182.31;;;10.64;100.00
54948;BME280;41113;41.882;12.530;2023-03-21T01:14:52;101173.03;;;10.57;100.00
54948;BME280;41113;41.882;12.530;2023-03-21T01:17:18;101171.09;;;10.59;100.00
54948;BME280;41113;41.882;12.530;2023-03-21T01:19:43;101175.25;;;10.52;100.00
54948;BME280;41113;41.882;12.530;2023-03-21T01:22:08;101169.91;;;10.41;100.00
54948;BME280;41113;41.882;12.530;2023-03-21T01:24:34;101171.72;;;10.29;100.00
54948;BME280;41113;41.882;12.530;2023-03-21T01:27:01;101169.38;;;10.36;100.00
54948;BME280;41113;41.882;12.530;2023-03-21T01:29:26;101168.19;;;10.28;100.00
54948;BME280;41113;41.882;12.530;2023-03-21T01:31:52;101170.63;;;10.43;100.00
54948;BME280;41113;41.882;12.530;2023-03-21T01:34:17;101179.03;;;10.49;100.00
54948;BME280;41113;41.882;12.530;2023-03-21T01:36:43;101170.97;;;10.49;100.00
54948;BME280;41113;41.882;12.530;2023-03-21T01:39:09;101173.03;;;10.57;100.00
54948;BME280;41113;41.882;12.530;2023-03-21T01:41:38;101158.38;;;10.61;100.00
54948;BME280;41113;41.882;12.530;2023-03-21T01:44:05;101151.03;;;10.63;100.00
54948;BME280;41113;41.882;12.530;2023-03-21T01:49:49;101166.78;;;10.68;100.00
54948;BME280;41113;41.882;12.530;2023-03-21T01:52:02;101166.22;;;10.53;100.00
54948;BME280;41113;41.882;12.530;2023-03-21T01:54:33;101159.63;;;10.46;100.00
54948;BME280;41113;41.882;12.530;2023-03-21T01:57:07;101157.91;;;10.56;100.00
54948;BME280;41113;41.882;12.530;2023-03-21T01:59:37;101155.97;;;10.47;100.00
54948;BME280;41113;41.882;12.530;2023-03-21T02:02:08;101158.66;;;10.36;100.00
54948;BME280;41113;41.882;12.530;2023-03-21T02:04:36;101158.66;;;10.36;100.00
54948;BME280;41113;41.882;12.530;2023-03-21T02:07:06;101154.63;;;10.30;100.00
54948;BME280;41113;41.882;12.530;2023-03-21T02:09:36;101156.72;;;10.26;100.00
54948;BME280;41113;41.882;12.530;2023-03-21T02:12:03;101149.16;;;10.43;100.00
54948;BME280;41113;41.882;12.530;2023-03-21T02:14:32;101149.38;;;10.40;100.00
54948;BME280;41113;41.882;12.530;2023-03-21T02:28:38;101129.72;;;10.50;100.00
54948;BME280;41113;41.882;12.530;2023-03-21T02:31:16;101121.28;;;10.55;100.00
54948;BME280;41113;41.882;12.530;2023-03-21T02:36:24;101116.56;;;10.47;100.00
54948;BME280;41113;41.882;12.530;2023-03-21T02:38:53;101109.59;;;10.45;100.00
54948;BME280;41113;41.882;12.530;2023-03-21T02:41:27;101111.69;;;10.41;100.00
54948;BME280;41113;41.882;12.530;2023-03-21T02:47:02;101104.69;;;10.39;100.00
54948;BME280;41113;41.882;12.530;2023-03-21T02:52:17;101097.16;;;10.44;100.00
54948;BME280;41113;41.882;12.530;2023-03-21T02:54:46;101093.56;;;10.54;100.00
54948;BME280;41113;41.882;12.530;2023-03-21T02:57:15;101091.66;;;10.45;100.00
54948;BME280;41113;41.882;12.530;2023-03-21T02:59:42;101092.47;;;10.57;100.00
54948;BME280;41113;41.882;12.530;2023-03-21T03:02:09;101095.78;;;10.49;100.00
54948;BME280;41113;41.882;12.530;2023-03-21T03:04:36;101088.22;;;10.54;100.00
54948;BME280;41113;41.882;12.530;2023-03-21T03:15:29;101083.44;;;10.58;100.00
54948;BME280;41113;41.882;12.530;2023-03-21T03:18:18;101079.03;;;10.57;100.00
54948;BME280;41113;41.882;12.530;2023-03-21T03:23:50;101076.34;;;10.57;100.00
54948;BME280;41113;41.882;12.530;2023-03-21T03:26:31;101082.25;;;10.51;100.00
54948;BME280;41113;41.882;12.530;2023-03-21T03:29:05;101084.66;;;10.54;100.00
54948;BME280;41113;41.882;12.530;2023-03-21T03:31:37;101082.09;;;10.52;100.00
54948;BME280;41113;41.882;12.530;2023-03-21T03:34:08;101080.06;;;10.45;100.00
54948;BME280;41113;41.882;12.530;2023-03-21T03:36:38;101084.06;;;10.39;100.00
54948;BME280;41113;41.882;12.530;2023-03-21T03:39:09;101087.66;;;10.28;100.00
54948;BME280;41113;41.882;12.530;2023-03-21T03:41:59;101085.34;;;10.24;100.00
54948;BME280;41113;41.882;12.530;2023-03-21T03:44:26;101083.63;;;10.23;100.00
54948;BME280;41113;41.882;12.530;2023-03-21T03:46:57;101080.81;;;10.24;100.00
54948;BME280;41113;41.882;12.530;2023-03-21T03:49:28;101080.31;;;10.31;100.00
54948;BME280;41113;41.882;12.530;2023-03-21T03:52:17;101077.13;;;10.37;100.00
54948;BME280;41113;41.882;12.530;2023-03-21T03:54:46;101077.72;;;10.40;100.00
54948;BME280;41113;41.882;12.530;2023-03-21T03:57:13;101079.56;;;10.40;100.00
54948;BME280;41113;41.882;12.530;2023-03-21T03:59:42;101074.94;;;10.31;100.00
54948;BME280;41113;41.882;12.530;2023-03-21T04:02:09;101076.56;;;10.22;100.00
54948;BME280;41113;41.882;12.530;2023-03-21T04:04:35;101079.09;;;10.12;100.00
54948;BME280;41113;41.882;12.530;2023-03-21T04:07:02;101077.41;;;10.11;100.00
54948;BME280;41113;41.882;12.530;2023-03-21T04:09:28;101072.16;;;10.21;100.00
54948;BME280;41113;41.882;12.530;2023-03-21T04:11:55;101076.16;;;10.04;100.00
54948;BME280;41113;41.882;12.530;2023-03-21T04:14:22;101069.22;;;10.02;100.00
54948;BME280;41113;41.882;12.530;2023-03-21T04:16:48;101070.31;;;9.99;100.00
54948;BME280;41113;41.882;12.530;2023-03-21T04:19:17;101075.69;;;9.99;100.00
54948;BME280;41113;41.882;12.530;2023-03-21T04:21:43;101074.72;;;10.11;100.00
54948;BME280;41113;41.882;12.530;2023-03-21T04:24:13;101076.16;;;10.15;100.00
54948;BME280;41113;41.882;12.530;2023-03-21T04:26:39;101078.75;;;9.94;100.00
54948;BME280;41113;41.882;12.530;2023-03-21T04:29:05;101085.81;;;9.84;100.00
54948;BME280;41113;41.882;12.530;2023-03-21T04:31:33;101086.66;;;9.74;100.00
54948;BME280;41113;41.882;12.530;2023-03-21T04:34:03;101084.09;;;9.72;100.00
54948;BME280;41113;41.882;12.530;2023-03-21T04:36:29;101087.28;;;9.77;100.00
54948;BME280;41113;41.882;12.530;2023-03-21T04:39:03;101079.59;;;9.73;100.00
54948;BME280;41113;41.882;12.530;2023-03-21T04:41:30;101089.34;;;9.62;100.00
54948;BME280;41113;41.882;12.530;2023-03-21T04:43:56;101080.56;;;9.60;100.00
54948;BME280;41113;41.882;12.530;2023-03-21T04:46:22;101073.13;;;9.75;100.00
54948;BME280;41113;41.882;12.530;2023-03-21T04:48:47;101082.13;;;9.74;100.00
54948;BME280;41113;41.882;12.530;2023-03-21T04:51:14;101072.25;;;9.75;100.00
54948;BME280;41113;41.882;12.530;2023-03-21T04:53:39;101070.31;;;9.65;100.00
54948;BME280;41113;41.882;12.530;2023-03-21T04:56:08;101070.69;;;9.61;100.00
54948;BME280;41113;41.882;12.530;2023-03-21T04:58:33;101069.34;;;9.55;100.00
54948;BME280;41113;41.882;12.530;2023-03-21T05:00:58;101062.53;;;9.51;100.00
54948;BME280;41113;41.882;12.530;2023-03-21T05:03:26;101071.53;;;9.50;100.00
54948;BME280;41113;41.882;12.530;2023-03-21T05:05:55;101085.19;;;9.47;100.00
54948;BME280;41113;41.882;12.530;2023-03-21T05:08:21;101084.44;;;9.45;100.00
54948;BME280;41113;41.882;12.530;2023-03-21T05:10:49;101083.81;;;9.42;100.00
54948;BME280;41113;41.882;12.530;2023-03-21T05:13:14;101082.09;;;9.41;100.00
54948;BME280;41113;41.882;12.530;2023-03-21T05:15:40;101079.31;;;9.42;100.00
54948;BME280;41113;41.882;12.530;2023-03-21T05:18:05;101078.06;;;9.35;100.00
54948;BME280;41113;41.882;12.530;2023-03-21T05:20:38;101083.19;;;9.38;100.00
54948;BME280;41113;41.882;12.530;2023-03-21T05:23:08;101075.41;;;9.35;100.00
54948;BME280;41113;41.882;12.530;2023-03-21T05:25:36;101073.31;;;9.39;100.00
54948;BME280;41113;41.882;12.530;2023-03-21T05:28:03;101084.16;;;9.37;100.00
54948;BME280;41113;41.882;12.530;2023-03-21T05:30:29;101092.69;;;9.42;100.00
54948;BME280;41113;41.882;12.530;2023-03-21T05:32:54;101088.59;;;9.49;100.00
54948;BME280;41113;41.882;12.530;2023-03-21T05:35:20;101100.00;;;9.40;100.00
54948;BME280;41113;41.882;12.530;2023-03-21T05:37:45;101094.31;;;9.45;100.00
54948;BME280;41113;41.882;12.530;2023-03-21T05:40:11;101102.75;;;9.51;100.00
54948;BME280;41113;41.882;12.530;2023-03-21T05:42:36;101101.03;;;9.50;100.00
54948;BME280;41113;41.882;12.530;2023-03-21T05:45:02;101097.63;;;9.48;100.00
54948;BME280;41113;41.882;12.530;2023-03-21T05:47:28;101101.50;;;9.44;100.00
54948;BME280;41113;41.882;12.530;2023-03-21T05:49:53;101099.53;;;9.35;100.00
54948;BME280;41113;41.882;12.530;2023-03-21T05:52:18;101104.50;;;9.28;100.00
54948;BME280;41113;41.882;12.530;2023-03-21T05:54:44;101103.91;;;9.36;100.00
54948;BME280;41113;41.882;12.530;2023-03-21T05:57:09;101108.59;;;9.45;100.00
54948;BME280;41113;41.882;12.530;2023-03-21T05:59:35;101102.75;;;9.51;100.00
54948;BME280;41113;41.882;12.530;2023-03-21T06:02:00;101101.53;;;9.66;100.00
54948;BME280;41113;41.882;12.530;2023-03-21T06:04:26;101108.59;;;9.56;100.00
54948;BME280;41113;41.882;12.530;2023-03-21T06:06:52;101102.25;;;9.57;100.00
54948;BME280;41113;41.882;12.530;2023-03-21T06:09:19;101105.44;;;9.62;100.00
54948;BME280;41113;41.882;12.530;2023-03-21T06:11:47;101102.63;;;9.53;100.00
54948;BME280;41113;41.882;12.530;2023-03-21T06:14:13;101098.13;;;9.64;100.00
54948;BME280;41113;41.882;12.530;2023-03-21T06:16:38;101105.34;;;9.86;100.00
54948;BME280;41113;41.882;12.530;2023-03-21T06:19:04;101109.47;;;9.90;100.00
54948;BME280;41113;41.882;12.530;2023-03-21T06:21:29;101107.03;;;9.98;100.00
54948;BME280;41113;41.882;12.530;2023-03-21T06:23:55;101114.59;;;10.05;100.00
54948;BME280;41113;41.882;12.530;2023-03-21T06:26:20;101109.63;;;10.22;100.00
54948;BME280;41113;41.882;12.530;2023-03-21T06:28:51;101110.94;;;10.39;100.00
54948;BME280;41113;41.882;12.530;2023-03-21T06:31:17;101104.97;;;10.24;100.00
54948;BME280;41113;41.882;12.530;2023-03-21T06:33:42;101103.84;;;10.38;100.00
54948;BME280;41113;41.882;12.530;2023-03-21T06:36:08;101104.94;;;10.36;100.00
54948;BME280;41113;41.882;12.530;2023-03-21T06:38:34;101108.84;;;10.54;100.00
54948;BME280;41113;41.882;12.530;2023-03-21T06:41:04;101100.47;;;10.68;100.00
54948;BME280;41113;41.882;12.530;2023-03-21T06:43:32;101107.31;;;10.72;100.00
54948;BME280;41113;41.882;12.530;2023-03-21T06:45:57;101094.03;;;10.59;100.00
54948;BME280;41113;41.882;12.530;2023-03-21T06:48:23;101104.41;;;10.64;100.00
54948;BME280;41113;41.882;12.530;2023-03-21T06:50:49;101102.19;;;10.69;100.00
54948;BME280;41113;41.882;12.530;2023-03-21T06:53:16;101106.81;;;10.78;100.00
54948;BME280;41113;41.882;12.530;2023-03-21T06:55:41;101107.75;;;10.88;100.00
54948;BME280;41113;41.882;12.530;2023-03-21T06:58:07;101100.94;;;10.84;100.00
54948;BME280;41113;41.882;12.530;2023-03-21T07:00:32;101110.00;;;10.72;100.00
54948;BME280;41113;41.882;12.530;2023-03-21T07:02:57;101105.13;;;10.77;100.00
54948;BME280;41113;41.882;12.530;2023-03-21T07:05:23;101108.28;;;10.82;100.00
54948;BME280;41113;41.882;12.530;2023-03-21T07:07:48;101108.00;;;10.85;100.00
54948;BME280;41113;41.882;12.530;2023-03-21T07:10:14;101102.06;;;11.03;100.00
54948;BME280;41113;41.882;12.530;2023-03-21T07:12:40;101109.78;;;10.96;99.81
54948;BME280;41113;41.882;12.530;2023-03-21T07:15:07;101102.97;;;10.92;99.25
54948;BME280;41113;41.882;12.530;2023-03-21T07:17:33;101106.38;;;10.94;98.70
54948;BME280;41113;41.882;12.530;2023-03-21T07:20:00;101105.13;;;10.98;98.55
54948;BME280;41113;41.882;12.530;2023-03-21T07:22:25;101108.41;;;11.02;97.34
54948;BME280;41113;41.882;12.530;2023-03-21T07:24:50;101105.25;;;11.08;97.17
54948;BME280;41113;41.882;12.530;2023-03-21T07:27:17;101104.25;;;11.09;96.27
54948;BME280;41113;41.882;12.530;2023-03-21T07:29:43;101116.19;;;11.16;96.70
54948;BME280;41113;41.882;12.530;2023-03-21T07:32:09;101112.00;;;11.23;95.75
54948;BME280;41113;41.882;12.530;2023-03-21T07:34:35;101113.50;;;11.16;95.38
54948;BME280;41113;41.882;12.530;2023-03-21T07:37:01;101110.09;;;11.14;94.92
54948;BME280;41113;41.882;12.530;2023-03-21T07:39:27;101118.16;;;11.14;94.96
54948;BME280;41113;41.882;12.530;2023-03-21T07:41:52;101110.03;;;11.25;94.59
54948;BME280;41113;41.882;12.530;2023-03-21T07:44:20;101104.13;;;11.31;94.69
54948;BME280;41113;41.882;12.530;2023-03-21T07:46:46;101107.69;;;11.52;94.35
54948;BME280;41113;41.882;12.530;2023-03-21T07:49:12;101112.38;;;11.60;93.56
54948;BME280;41113;41.882;12.530;2023-03-21T07:51:40;101105.63;;;11.66;93.40
54948;BME280;41113;41.882;12.530;2023-03-21T07:54:05;101112.06;;;11.53;92.99
54948;BME280;41113;41.882;12.530;2023-03-21T07:56:31;101104.28;;;11.50;93.18
54948;BME280;41113;41.882;12.530;2023-03-21T07:58:56;101107.28;;;11.78;93.90
54948;BME280;41113;41.882;12.530;2023-03-21T08:01:23;101109.63;;;11.92;92.55
54948;BME280;41113;41.882;12.530;2023-03-21T08:03:48;101112.41;;;11.81;91.77
54948;BME280;41113;41.882;12.530;2023-03-21T08:06:15;101121.56;;;11.58;92.41
54948;BME280;41113;41.882;12.530;2023-03-21T08:08:41;101120.41;;;11.50;94.05
54948;BME280;41113;41.882;12.530;2023-03-21T08:11:06;101113.69;;;11.66;93.26
54948;BME280;41113;41.882;12.530;2023-03-21T08:13:32;101113.19;;;11.72;93.43
54948;BME280;41113;41.882;12.530;2023-03-21T08:15:58;101121.72;;;11.77;92.69
54948;BME280;41113;41.882;12.530;2023-03-21T08:18:23;101126.84;;;11.80;92.60
54948;BME280;41113;41.882;12.530;2023-03-21T08:20:53;101119.00;;;11.77;92.84
54948;BME280;41113;41.882;12.530;2023-03-21T08:23:19;101114.81;;;11.84;91.20
54948;BME280;41113;41.882;12.530;2023-03-21T08:25:49;101112.41;;;11.81;90.79
54948;BME280;41113;41.882;12.530;2023-03-21T08:28:16;101111.59;;;11.90;90.49
54948;BME280;41113;41.882;12.530;2023-03-21T08:30:41;101112.47;;;12.00;90.19
54948;BME280;41113;41.882;12.530;2023-03-21T08:33:08;101117.34;;;12.06;89.51
54948;BME280;41113;41.882;12.530;2023-03-21T08:35:34;101112.56;;;12.20;89.04
54948;BME280;41113;41.882;12.530;2023-03-21T08:38:05;101120.22;;;12.14;88.79
54948;BME280;41113;41.882;12.530;2023-03-21T08:40:31;101109.75;;;12.21;88.25
54948;BME280;41113;41.882;12.530;2023-03-21T08:42:57;101110.03;;;12.28;88.73
54948;BME280;41113;41.882;12.530;2023-03-21T08:45:22;101103.00;;;12.36;87.32
54948;BME280;41113;41.882;12.530;2023-03-21T08:47:48;101099.88;;;12.41;87.60
54948;BME280;41113;41.882;12.530;2023-03-21T08:50:18;101098.78;;;12.53;88.18
54948;BME280;41113;41.882;12.530;2023-03-21T08:52:46;101096.41;;;12.69;87.39
54948;BME280;41113;41.882;12.530;2023-03-21T08:55:14;101086.03;;;12.94;86.55
54948;BME280;41113;41.882;12.530;2023-03-21T08:57:40;101094.84;;;13.15;85.84
54948;BME280;41113;41.882;12.530;2023-03-21T09:00:07;101092.28;;;13.14;84.22
54948;BME280;41113;41.882;12.530;2023-03-21T09:02:43;101093.44;;;13.30;83.25
54948;BME280;41113;41.882;12.530;2023-03-21T09:05:10;101093.59;;;13.38;82.50
54948;BME280;41113;41.882;12.530;2023-03-21T09:07:40;101091.69;;;13.58;82.68
54948;BME280;41113;41.882;12.530;2023-03-21T09:10:08;101094.59;;;13.84;81.74
54948;BME280;41113;41.882;12.530;2023-03-21T09:12:36;101083.06;;;13.92;80.94
54948;BME280;41113;41.882;12.530;2023-03-21T09:15:02;101094.94;;;14.09;79.79
54948;BME280;41113;41.882;12.530;2023-03-21T09:17:28;101094.09;;;14.08;78.09
54948;BME280;41113;41.882;12.530;2023-03-21T09:19:55;101086.44;;;14.04;78.59
54948;BME280;41113;41.882;12.530;2023-03-21T09:22:21;101090.88;;;14.22;78.04
54948;BME280;41113;41.882;12.530;2023-03-21T09:24:48;101079.75;;;14.35;77.82
54948;BME280;41113;41.882;12.530;2023-03-21T09:27:15;101087.72;;;14.27;77.15
54948;BME280;41113;41.882;12.530;2023-03-21T09:29:48;101089.06;;;14.50;78.38
54948;BME280;41113;41.882;12.530;2023-03-21T09:32:14;101094.03;;;14.73;77.75
54948;BME280;41113;41.882;12.530;2023-03-21T09:34:41;101096.28;;;14.77;76.64
54948;BME280;41113;41.882;12.530;2023-03-21T09:37:07;101090.47;;;14.90;76.80
54948;BME280;41113;41.882;12.530;2023-03-21T09:39:37;101088.63;;;15.08;76.42
54948;BME280;41113;41.882;12.530;2023-03-21T09:47:46;101091.16;;;15.27;75.39
54948;BME280;41113;41.882;12.530;2023-03-21T09:50:39;101091.31;;;15.26;73.88
54948;BME280;41113;41.882;12.530;2023-03-21T09:55:35;101096.44;;;15.55;75.10
54948;BME280;41113;41.882;12.530;2023-03-21T09:58:27;101101.28;;;15.61;74.73
54948;BME280;41113;41.882;12.530;2023-03-21T10:01:23;101098.44;;;15.53;74.11
54948;BME280;41113;41.882;12.530;2023-03-21T10:03:51;101103.00;;;15.70;74.05
54948;BME280;41113;41.882;12.530;2023-03-21T10:06:19;101101.78;;;15.47;71.65
54948;BME280;41113;41.882;12.530;2023-03-21T10:08:56;101101.16;;;15.71;73.04
54948;BME280;41113;41.882;12.530;2023-03-21T10:11:27;101097.28;;;15.73;69.43
54948;BME280;41113;41.882;12.530;2023-03-21T10:16:42;101093.78;;;16.15;70.89
54948;BME280;41113;41.882;12.530;2023-03-21T10:19:15;101089.72;;;16.19;71.38
54948;BME280;41113;41.882;12.530;2023-03-21T10:21:44;101089.06;;;16.25;71.79
54948;BME280;41113;41.882;12.530;2023-03-21T10:24:14;101093.53;;;16.34;71.39
54948;BME280;41113;41.882;12.530;2023-03-21T10:26:41;101092.50;;;16.35;70.54
54948;BME280;41113;41.882;12.530;2023-03-21T10:29:09;101092.16;;;16.30;70.81
54948;BME280;41113;41.882;12.530;2023-03-21T10:31:37;101094.38;;;16.35;70.54
54948;BME280;41113;41.882;12.530;2023-03-21T10:34:12;101089.63;;;16.37;70.92
54948;BME280;41113;41.882;12.530;2023-03-21T10:36:40;101090.50;;;16.45;70.05
54948;BME280;41113;41.882;12.530;2023-03-21T10:41:53;101087.97;;;16.44;67.41
54948;BME280;41113;41.882;12.530;2023-03-21T10:44:19;101099.66;;;16.53;69.18
54948;BME280;41113;41.882;12.530;2023-03-21T10:47:02;101099.00;;;16.50;67.68
54948;BME280;41113;41.882;12.530;2023-03-21T10:49:29;101096.00;;;16.62;69.30
54948;BME280;41113;41.882;12.530;2023-03-21T10:51:58;101096.97;;;16.53;67.91
54948;BME280;41113;41.882;12.530;2023-03-21T10:54:28;101102.72;;;16.49;65.51
54948;BME280;41113;41.882;12.530;2023-03-21T10:57:06;101105.75;;;16.38;62.76
54948;BME280;41113;41.882;12.530;2023-03-21T10:59:39;101098.50;;;16.55;64.82
54948;BME280;41113;41.882;12.530;2023-03-21T11:02:15;101096.84;;;16.62;65.63
54948;BME280;41113;41.882;12.530;2023-03-21T11:04:42;101096.16;;;16.60;63.59
54948;BME280;41113;41.882;12.530;2023-03-21T11:07:12;101089.25;;;16.66;65.39
54948;BME280;41113;41.882;12.530;2023-03-21T11:09:47;101087.41;;;16.83;65.94
54948;BME280;41113;41.882;12.530;2023-03-21T11:12:15;101087.28;;;16.92;66.02
54948;BME280;41113;41.882;12.530;2023-03-21T11:14:48;101077.94;;;17.03;66.12
54948;BME280;41113;41.882;12.530;2023-03-21T11:17:26;101086.94;;;17.11;63.68
54948;BME280;41113;41.882;12.530;2023-03-21T11:20:06;101072.69;;;16.93;61.63
54948;BME280;41113;41.882;12.530;2023-03-21T11:22:40;101073.72;;;17.00;63.51
54948;BME280;41113;41.882;12.530;2023-03-21T11:25:09;101072.34;;;16.96;62.84
54948;BME280;41113;41.882;12.530;2023-03-21T11:27:50;101075.03;;;16.88;63.27
54948;BME280;41113;41.882;12.530;2023-03-21T11:30:22;101067.44;;;17.00;64.20
54948;BME280;41113;41.882;12.530;2023-03-21T11:33:00;101062.16;;;16.90;64.21
54948;BME280;41113;41.882;12.530;2023-03-21T11:35:35;101058.91;;;16.78;65.34
54948;BME280;41113;41.882;12.530;2023-03-21T11:38:03;101058.03;;;16.62;65.37
54948;BME280;41113;41.882;12.530;2023-03-21T11:40:34;101051.53;;;16.55;64.61
54948;BME280;41113;41.882;12.530;2023-03-21T11:43:02;101054.59;;;16.52;65.55
54948;BME280;41113;41.882;12.530;2023-03-21T11:45:29;101050.84;;;16.44;65.59
54948;BME280;41113;41.882;12.530;2023-03-21T11:47:57;101057.78;;;16.39;65.58
54948;BME280;41113;41.882;12.530;2023-03-21T11:58:21;101041.69;;;16.29;61.76
54948;BME280;41113;41.882;12.530;2023-03-21T12:01:17;101034.56;;;16.28;57.75
54948;BME280;41113;41.882;12.530;2023-03-21T12:04:12;101027.63;;;16.34;62.39
54948;BME280;41113;41.882;12.530;2023-03-21T12:09:43;101020.69;;;16.39;59.70
54948;BME280;41113;41.882;12.530;2023-03-21T12:12:45;101009.84;;;16.39;59.06
54948;BME280;41113;41.882;12.530;2023-03-21T12:15:23;101012.06;;;16.44;59.36
54948;BME280;41113;41.882;12.530;2023-03-21T12:21:01;100991.13;;;16.70;60.39
54948;BME280;41113;41.882;12.530;2023-03-21T12:26:29;100985.84;;;16.85;60.47
54948;BME280;41113;41.882;12.530;2023-03-21T12:31:55;100974.84;;;16.70;58.04
54948;BME280;41113;41.882;12.530;2023-03-21T12:37:51;100974.63;;;17.13;58.82
54948;BME280;41113;41.882;12.530;2023-03-21T12:40:07;100978.00;;;17.31;59.34
54948;BME280;41113;41.882;12.530;2023-03-21T12:45:28;100970.47;;;17.57;59.85
54948;BME280;41113;41.882;12.530;2023-03-21T12:48:02;100968.75;;;17.64;59.59
54948;BME280;41113;41.882;12.530;2023-03-21T12:50:32;100963.00;;;17.67;59.67
54948;BME280;41113;41.882;12.530;2023-03-21T12:53:17;100958.41;;;17.68;58.67
54948;BME280;41113;41.882;12.530;2023-03-21T12:55:48;100966.38;;;17.69;59.43
54948;BME280;41113;41.882;12.530;2023-03-21T12:58:19;100960.25;;;17.76;58.20
54948;BME280;41113;41.882;12.530;2023-03-21T13:00:57;100967.88;;;17.80;58.37
54948;BME280;41113;41.882;12.530;2023-03-21T13:03:30;100962.91;;;17.84;58.41
54948;BME280;41113;41.882;12.530;2023-03-21T13:06:07;100964.91;;;17.98;58.44
54948;BME280;41113;41.882;12.530;2023-03-21T13:08:48;100967.97;;;17.95;55.79
54948;BME280;41113;41.882;12.530;2023-03-21T13:11:21;100963.22;;;17.97;56.90
54948;BME280;41113;41.882;12.530;2023-03-21T13:14:02;100966.25;;;18.02;56.93
54948;BME280;41113;41.882;12.530;2023-03-21T13:16:35;100956.66;;;18.14;55.62
54948;BME280;41113;41.882;12.530;2023-03-21T13:24:24;100945.44;;;18.40;57.13
54948;BME280;41113;41.882;12.530;2023-03-21T13:27:03;100936.91;;;18.43;57.77
54948;BME280;41113;41.882;12.530;2023-03-21T13:29:41;100941.50;;;18.43;57.56
54948;BME280;41113;41.882;12.530;2023-03-21T13:32:27;100933.66;;;18.48;56.73
54948;BME280;41113;41.882;12.530;2023-03-21T13:34:56;100926.81;;;18.52;58.28
54948;BME280;41113;41.882;12.530;2023-03-21T13:37:24;100934.31;;;18.50;58.36
54948;BME280;41113;41.882;12.530;2023-03-21T13:39:52;100923.44;;;18.50;58.37
54948;BME280;41113;41.882;12.530;2023-03-21T13:42:22;100925.13;;;18.51;58.31
54948;BME280;41113;41.882;12.530;2023-03-21T13:44:57;100924.81;;;18.46;58.51
54948;BME280;41113;41.882;12.530;2023-03-21T13:47:50;100916.13;;;18.27;56.38
54948;BME280;41113;41.882;12.530;2023-03-21T13:52:42;100917.47;;;18.31;59.65
54948;BME280;41113;41.882;12.530;2023-03-21T13:55:29;100922.53;;;18.34;60.36
54948;BME280;41113;41.882;12.530;2023-03-21T13:57:54;100926.16;;;18.27;61.29
54948;BME280;41113;41.882;12.530;2023-03-21T14:00:28;100922.63;;;18.18;62.20
54948;BME280;41113;41.882;12.530;2023-03-21T14:02:58;100915.16;;;18.20;62.52
54948;BME280;41113;41.882;12.530;2023-03-21T14:05:25;100914.66;;;18.17;62.50
54948;BME280;41113;41.882;12.530;2023-03-21T14:08:00;100914.91;;;18.07;63.04